createdAt,value
2018-10-03T00:00:24.657Z,1005.79
2018-10-03T00:01:24.633Z,1005.78
2018-10-03T00:02:24.605Z,1005.80
2018-10-03T00:03:24.580Z,1005.79
2018-10-03T00:04:24.554Z,1005.81
2018-10-03T00:05:24.530Z,1005.79
2018-10-03T00:06:24.498Z,1005.81
2018-10-03T00:07:24.470Z,1005.84
2018-10-03T00:08:24.445Z,1005.87
2018-10-03T00:09:24.425Z,1005.92
2018-10-03T00:10:24.394Z,1005.88
2018-10-03T00:11:24.365Z,1005.86
2018-10-03T00:12:24.348Z,1005.91
2018-10-03T00:13:24.308Z,1005.94
2018-10-03T00:14:24.287Z,1005.98
2018-10-03T00:15:24.263Z,1005.95
2018-10-03T00:16:24.230Z,1005.90
2018-10-03T00:17:24.210Z,1005.93
2018-10-03T00:18:24.182Z,1005.88
2018-10-03T00:19:24.153Z,1005.88
2018-10-03T00:20:24.130Z,1005.89
2018-10-03T00:21:24.097Z,1005.86
2018-10-03T00:22:24.074Z,1005.88
2018-10-03T00:23:24.121Z,1005.93
2018-10-03T00:24:24.019Z,1005.93
2018-10-03T00:25:23.998Z,1006.00
2018-10-03T00:26:23.978Z,1006.08
2018-10-03T00:27:23.946Z,1006.05
2018-10-03T00:28:23.960Z,1006.11
2018-10-03T00:29:23.887Z,1006.05
2018-10-03T00:30:23.862Z,1006.06
2018-10-03T00:31:23.837Z,1006.05
2018-10-03T00:32:23.809Z,1006.06
2018-10-03T00:33:23.789Z,1006.09
2018-10-03T00:34:23.752Z,1006.12
2018-10-03T00:35:23.735Z,1006.17
2018-10-03T00:36:23.705Z,1006.24
2018-10-03T00:37:23.675Z,1006.22
2018-10-03T00:38:23.651Z,1006.22
2018-10-03T00:39:23.622Z,1006.24
2018-10-03T00:40:23.598Z,1006.28
2018-10-03T00:41:23.582Z,1006.31
2018-10-03T00:42:23.545Z,1006.33
2018-10-03T00:43:23.515Z,1006.37
2018-10-03T00:44:23.491Z,1006.36
2018-10-03T00:45:23.465Z,1006.37
2018-10-03T00:46:23.437Z,1006.35
2018-10-03T00:47:23.413Z,1006.39
2018-10-03T00:48:23.386Z,1006.33
2018-10-03T00:49:23.358Z,1006.31
2018-10-03T00:50:23.333Z,1006.27
2018-10-03T00:51:23.301Z,1006.32
2018-10-03T00:52:23.278Z,1006.36
2018-10-03T00:53:23.245Z,1006.34
2018-10-03T00:54:23.229Z,1006.37
2018-10-03T00:55:23.200Z,1006.40
2018-10-03T00:56:23.169Z,1006.42
2018-10-03T00:57:23.150Z,1006.37
2018-10-03T00:58:23.117Z,1006.38
2018-10-03T00:59:23.093Z,1006.34
2018-10-03T01:00:23.066Z,1006.31
2018-10-03T01:01:23.036Z,1006.28
2018-10-03T01:02:23.010Z,1006.34
2018-10-03T01:03:22.990Z,1006.37
2018-10-03T01:04:22.956Z,1006.37
2018-10-03T01:05:22.927Z,1006.37
2018-10-03T01:06:22.904Z,1006.35
2018-10-03T01:07:22.882Z,1006.38
2018-10-03T01:08:22.848Z,1006.34
2018-10-03T01:09:22.834Z,1006.33
2018-10-03T01:10:22.797Z,1006.35
2018-10-03T01:11:22.771Z,1006.36
2018-10-03T01:12:22.747Z,1006.35
2018-10-03T01:13:22.719Z,1006.36
2018-10-03T01:14:22.694Z,1006.37
2018-10-03T01:15:22.666Z,1006.41
2018-10-03T01:16:22.638Z,1006.41
2018-10-03T01:17:22.614Z,1006.40
2018-10-03T01:18:22.592Z,1006.40
2018-10-03T01:19:22.558Z,1006.38
2018-10-03T01:20:22.531Z,1006.41
2018-10-03T01:21:22.516Z,1006.43
2018-10-03T01:22:22.482Z,1006.42
2018-10-03T01:23:22.454Z,1006.40
2018-10-03T01:24:22.448Z,1006.36
2018-10-03T01:25:22.402Z,1006.38
2018-10-03T01:26:22.374Z,1006.36
2018-10-03T01:27:22.351Z,1006.36
2018-10-03T01:28:22.319Z,1006.40
2018-10-03T01:29:22.295Z,1006.36
2018-10-03T01:30:22.270Z,1006.36
2018-10-03T01:31:22.248Z,1006.32
2018-10-03T01:32:22.216Z,1006.27
2018-10-03T01:33:22.191Z,1006.23
2018-10-03T01:34:22.162Z,1006.24
2018-10-03T01:35:22.141Z,1006.22
2018-10-03T01:36:22.112Z,1006.23
2018-10-03T01:37:22.084Z,1006.25
2018-10-03T01:38:22.108Z,1006.30
2018-10-03T01:39:22.034Z,1006.29
2018-10-03T01:40:22.017Z,1006.35
2018-10-03T01:41:21.976Z,1006.42
2018-10-03T01:42:21.952Z,1006.46
2018-10-03T01:43:21.924Z,1006.42
2018-10-03T01:44:21.895Z,1006.39
2018-10-03T01:45:36.578Z,1006.36
2018-10-03T01:46:21.843Z,1006.40
2018-10-03T01:47:21.820Z,1006.39
2018-10-03T01:48:21.792Z,1006.42
2018-10-03T01:49:21.764Z,1006.41
2018-10-03T01:50:21.736Z,1006.41
2018-10-03T01:51:21.710Z,1006.45
2018-10-03T01:52:21.685Z,1006.47
2018-10-03T01:53:21.660Z,1006.46
2018-10-03T01:54:21.638Z,1006.45
2018-10-03T01:55:21.603Z,1006.45
2018-10-03T01:56:21.576Z,1006.40
2018-10-03T01:57:21.556Z,1006.39
2018-10-03T01:58:21.527Z,1006.37
2018-10-03T01:59:21.505Z,1006.38
2018-10-03T02:00:21.477Z,1006.37
2018-10-03T02:01:21.442Z,1006.36
2018-10-03T02:02:21.422Z,1006.42
2018-10-03T02:03:21.392Z,1006.48
2018-10-03T02:04:21.385Z,1006.42
2018-10-03T02:05:21.347Z,1006.49
2018-10-03T02:06:21.315Z,1006.50
2018-10-03T02:07:21.294Z,1006.52
2018-10-03T02:08:21.258Z,1006.57
2018-10-03T02:09:21.231Z,1006.58
2018-10-03T02:10:21.201Z,1006.60
2018-10-03T02:11:21.190Z,1006.62
2018-10-03T02:12:21.150Z,1006.64
2018-10-03T02:13:21.149Z,1006.69
2018-10-03T02:14:21.099Z,1006.68
2018-10-03T02:15:21.071Z,1006.66
2018-10-03T02:16:21.055Z,1006.68
2018-10-03T02:17:21.016Z,1006.62
2018-10-03T02:18:20.992Z,1006.59
2018-10-03T02:19:20.968Z,1006.59
2018-10-03T02:20:20.937Z,1006.57
2018-10-03T02:21:20.917Z,1006.60
2018-10-03T02:22:20.900Z,1006.66
2018-10-03T02:23:20.862Z,1006.69
2018-10-03T02:24:20.833Z,1006.68
2018-10-03T02:25:20.810Z,1006.65
2018-10-03T02:26:20.786Z,1006.72
2018-10-03T02:27:20.753Z,1006.67
2018-10-03T02:28:20.729Z,1006.65
2018-10-03T02:29:20.699Z,1006.62
2018-10-03T02:30:20.671Z,1006.67
2018-10-03T02:31:20.652Z,1006.67
2018-10-03T02:32:20.619Z,1006.67
2018-10-03T02:33:20.602Z,1006.67
2018-10-03T02:34:20.571Z,1006.65
2018-10-03T02:35:20.546Z,1006.66
2018-10-03T02:36:20.519Z,1006.68
2018-10-03T02:37:20.484Z,1006.69
2018-10-03T02:38:20.460Z,1006.65
2018-10-03T02:39:20.437Z,1006.63
2018-10-03T02:40:20.410Z,1006.66
2018-10-03T02:41:20.381Z,1006.68
2018-10-03T02:42:20.357Z,1006.68
2018-10-03T02:43:20.331Z,1006.72
2018-10-03T02:44:20.300Z,1006.71
2018-10-03T02:45:20.276Z,1006.74
2018-10-03T02:46:20.250Z,1006.78
2018-10-03T02:47:20.235Z,1006.81
2018-10-03T02:48:20.199Z,1006.81
2018-10-03T02:49:20.164Z,1006.82
2018-10-03T02:50:20.149Z,1006.85
2018-10-03T02:51:20.114Z,1006.80
2018-10-03T02:52:20.087Z,1006.83
2018-10-03T02:53:20.088Z,1006.84
2018-10-03T02:54:20.035Z,1006.87
2018-10-03T02:55:20.016Z,1006.88
2018-10-03T02:56:19.982Z,1006.89
2018-10-03T02:57:19.951Z,1006.89
2018-10-03T02:58:19.928Z,1006.92
2018-10-03T02:59:19.906Z,1006.92
2018-10-03T03:00:19.873Z,1006.91
2018-10-03T03:01:19.854Z,1006.97
2018-10-03T03:02:19.824Z,1006.92
2018-10-03T03:03:19.797Z,1006.91
2018-10-03T03:04:19.765Z,1006.93
2018-10-03T03:05:19.760Z,1006.95
2018-10-03T03:06:19.719Z,1006.91
2018-10-03T03:07:19.705Z,1006.91
2018-10-03T03:08:19.672Z,1006.97
2018-10-03T03:09:19.635Z,1006.95
2018-10-03T03:10:19.611Z,1007.01
2018-10-03T03:11:19.584Z,1007.02
2018-10-03T03:12:19.557Z,1007.01
2018-10-03T03:13:19.531Z,1007.01
2018-10-03T03:14:19.514Z,1007.01
2018-10-03T03:15:19.485Z,1006.99
2018-10-03T03:16:19.452Z,1006.97
2018-10-03T03:17:19.424Z,1006.92
2018-10-03T03:18:19.396Z,1006.96
2018-10-03T03:19:19.372Z,1006.96
2018-10-03T03:20:19.351Z,1006.99
2018-10-03T03:21:19.316Z,1006.98
2018-10-03T03:22:19.294Z,1006.99
2018-10-03T03:23:19.261Z,1006.99
2018-10-03T03:24:19.237Z,1006.98
2018-10-03T03:25:19.209Z,1007.00
2018-10-03T03:26:19.180Z,1007.00
2018-10-03T03:27:19.162Z,1006.98
2018-10-03T03:28:19.129Z,1007.00
2018-10-03T03:29:19.104Z,1007.02
2018-10-03T03:30:19.103Z,1006.98
2018-10-03T03:31:19.056Z,1007.02
2018-10-03T03:32:19.025Z,1007.02
2018-10-03T03:33:18.996Z,1007.01
2018-10-03T03:34:18.969Z,1007.02
2018-10-03T03:35:18.950Z,1006.96
2018-10-03T03:36:18.928Z,1006.98
2018-10-03T03:37:18.895Z,1006.99
2018-10-03T03:38:18.861Z,1007.06
2018-10-03T03:39:18.842Z,1007.03
2018-10-03T03:40:18.815Z,1007.06
2018-10-03T03:41:18.782Z,1007.09
2018-10-03T03:42:18.765Z,1007.11
2018-10-03T03:43:18.737Z,1007.07
2018-10-03T03:44:18.706Z,1007.08
2018-10-03T03:45:18.678Z,1007.01
2018-10-03T03:46:18.656Z,1007.06
2018-10-03T03:47:18.622Z,1007.07
2018-10-03T03:48:18.611Z,1007.19
2018-10-03T03:49:18.572Z,1007.18
2018-10-03T03:50:18.545Z,1007.18
2018-10-03T03:51:18.520Z,1007.17
2018-10-03T03:52:18.493Z,1007.26
2018-10-03T03:53:18.466Z,1007.20
2018-10-03T03:54:18.440Z,1007.21
2018-10-03T03:55:18.413Z,1007.22
2018-10-03T03:56:18.385Z,1007.22
2018-10-03T03:57:18.358Z,1007.24
2018-10-03T03:58:18.333Z,1007.27
2018-10-03T03:59:18.303Z,1007.33
2018-10-03T04:00:18.287Z,1007.29
2018-10-03T04:01:18.247Z,1007.31
2018-10-03T04:02:18.223Z,1007.32
2018-10-03T04:03:18.204Z,1007.35
2018-10-03T04:04:18.174Z,1007.35
2018-10-03T04:05:18.143Z,1007.35
2018-10-03T04:06:18.134Z,1007.37
2018-10-03T04:07:18.095Z,1007.36
2018-10-03T04:08:18.070Z,1007.33
2018-10-03T04:09:18.038Z,1007.35
2018-10-03T04:10:18.010Z,1007.33
2018-10-03T04:11:17.983Z,1007.31
2018-10-03T04:12:17.957Z,1007.29
2018-10-03T04:13:17.934Z,1007.29
2018-10-03T04:14:17.902Z,1007.26
2018-10-03T04:15:17.880Z,1007.22
2018-10-03T04:16:17.851Z,1007.27
2018-10-03T04:17:17.829Z,1007.26
2018-10-03T04:18:17.797Z,1007.29
2018-10-03T04:19:17.774Z,1007.34
2018-10-03T04:20:17.741Z,1007.31
2018-10-03T04:21:17.720Z,1007.31
2018-10-03T04:22:17.695Z,1007.31
2018-10-03T04:23:17.667Z,1007.32
2018-10-03T04:24:17.634Z,1007.32
2018-10-03T04:25:17.612Z,1007.35
2018-10-03T04:26:17.590Z,1007.32
2018-10-03T04:27:17.552Z,1007.38
2018-10-03T04:28:17.530Z,1007.38
2018-10-03T04:29:17.503Z,1007.45
2018-10-03T04:30:17.472Z,1007.45
2018-10-03T04:31:17.457Z,1007.47
2018-10-03T04:32:17.423Z,1007.50
2018-10-03T04:33:17.392Z,1007.51
2018-10-03T04:34:17.371Z,1007.56
2018-10-03T04:35:17.352Z,1007.53
2018-10-03T04:36:17.318Z,1007.59
2018-10-03T04:37:17.288Z,1007.63
2018-10-03T04:38:17.264Z,1007.63
2018-10-03T04:39:17.237Z,1007.64
2018-10-03T04:40:17.215Z,1007.62
2018-10-03T04:41:17.184Z,1007.63
2018-10-03T04:42:17.209Z,1007.68
2018-10-03T04:43:17.137Z,1007.69
2018-10-03T04:44:17.105Z,1007.67
2018-10-03T04:45:17.081Z,1007.63
2018-10-03T04:46:17.056Z,1007.66
2018-10-03T04:47:17.020Z,1007.66
2018-10-03T04:48:16.995Z,1007.73
2018-10-03T04:49:16.969Z,1007.70
2018-10-03T04:50:16.944Z,1007.72
2018-10-03T04:51:16.921Z,1007.69
2018-10-03T04:52:16.902Z,1007.70
2018-10-03T04:53:16.859Z,1007.73
2018-10-03T04:54:16.833Z,1007.75
2018-10-03T04:55:16.807Z,1007.75
2018-10-03T04:56:16.798Z,1007.77
2018-10-03T04:57:16.753Z,1007.83
2018-10-03T04:58:16.769Z,1007.77
2018-10-03T04:59:16.711Z,1007.79
2018-10-03T05:00:16.671Z,1007.75
2018-10-03T05:01:16.662Z,1007.86
2018-10-03T05:02:16.623Z,1007.83
2018-10-03T05:03:16.599Z,1007.77
2018-10-03T05:04:16.567Z,1007.76
2018-10-03T05:05:16.542Z,1007.76
2018-10-03T05:06:16.517Z,1007.78
2018-10-03T05:07:16.485Z,1007.75
2018-10-03T05:08:16.458Z,1007.76
2018-10-03T05:09:16.439Z,1007.78
2018-10-03T05:10:16.412Z,1007.81
2018-10-03T05:11:16.415Z,1007.83
2018-10-03T05:12:16.357Z,1007.83
2018-10-03T05:13:16.327Z,1007.84
2018-10-03T05:14:16.301Z,1007.88
2018-10-03T05:15:16.285Z,1007.89
2018-10-03T05:16:16.252Z,1007.92
2018-10-03T05:17:16.227Z,1007.90
2018-10-03T05:18:16.200Z,1007.93
2018-10-03T05:19:16.219Z,1007.97
2018-10-03T05:20:16.142Z,1008.05
2018-10-03T05:21:16.123Z,1008.00
2018-10-03T05:22:16.088Z,1008.02
2018-10-03T05:23:16.060Z,1008.05
2018-10-03T05:24:16.039Z,1008.05
2018-10-03T05:25:16.008Z,1008.06
2018-10-03T05:26:15.985Z,1008.09
2018-10-03T05:27:15.953Z,1008.14
2018-10-03T05:28:15.937Z,1008.12
2018-10-03T05:29:15.907Z,1008.14
2018-10-03T05:30:15.873Z,1008.14
2018-10-03T05:31:15.852Z,1008.17
2018-10-03T05:32:15.817Z,1008.22
2018-10-03T05:33:15.844Z,1008.22
2018-10-03T05:34:15.775Z,1008.20
2018-10-03T05:35:15.755Z,1008.17
2018-10-03T05:36:15.717Z,1008.24
2018-10-03T05:37:15.684Z,1008.14
2018-10-03T05:38:15.661Z,1008.21
2018-10-03T05:39:15.637Z,1008.20
2018-10-03T05:40:15.604Z,1008.21
2018-10-03T05:41:15.609Z,1008.20
2018-10-03T05:42:15.560Z,1008.24
2018-10-03T05:43:15.551Z,1008.34
2018-10-03T05:44:15.514Z,1008.34
2018-10-03T05:45:15.479Z,1008.37
2018-10-03T05:46:15.443Z,1008.43
2018-10-03T05:47:15.425Z,1008.43
2018-10-03T05:48:15.431Z,1008.47
2018-10-03T05:49:15.366Z,1008.46
2018-10-03T05:50:15.372Z,1008.43
2018-10-03T05:51:15.311Z,1008.40
2018-10-03T05:52:15.283Z,1008.42
2018-10-03T05:53:15.272Z,1008.47
2018-10-03T05:54:15.236Z,1008.50
2018-10-03T05:55:15.217Z,1008.49
2018-10-03T05:56:15.182Z,1008.47
2018-10-03T05:57:15.162Z,1008.48
2018-10-03T05:58:15.138Z,1008.49
2018-10-03T05:59:15.096Z,1008.54
2018-10-03T06:00:15.077Z,1008.57
2018-10-03T06:01:15.069Z,1008.56
2018-10-03T06:02:15.026Z,1008.57
2018-10-03T06:03:14.991Z,1008.58
2018-10-03T06:04:14.966Z,1008.62
2018-10-03T06:05:14.939Z,1008.67
2018-10-03T06:06:14.909Z,1008.71
2018-10-03T06:07:14.891Z,1008.76
2018-10-03T06:08:14.900Z,1008.77
2018-10-03T06:09:14.836Z,1008.75
2018-10-03T06:10:14.807Z,1008.77
2018-10-03T06:11:14.784Z,1008.76
2018-10-03T06:12:14.839Z,1008.75
2018-10-03T06:13:14.721Z,1008.78
2018-10-03T06:14:14.701Z,1008.80
2018-10-03T06:15:14.674Z,1008.81
2018-10-03T06:16:14.645Z,1008.80
2018-10-03T06:17:14.621Z,1008.78
2018-10-03T06:18:14.595Z,1008.81
2018-10-03T06:19:14.572Z,1008.84
2018-10-03T06:20:14.541Z,1008.84
2018-10-03T06:21:14.510Z,1008.87
2018-10-03T06:22:14.493Z,1008.91
2018-10-03T06:23:14.458Z,1008.85
2018-10-03T06:24:14.435Z,1008.86
2018-10-03T06:25:14.406Z,1008.86
2018-10-03T06:26:14.383Z,1008.89
2018-10-03T06:27:14.367Z,1008.92
2018-10-03T06:28:14.394Z,1008.97
2018-10-03T06:29:14.303Z,1008.96
2018-10-03T06:30:14.287Z,1008.99
2018-10-03T06:31:14.250Z,1009.02
2018-10-03T06:32:14.216Z,1009.03
2018-10-03T06:33:14.201Z,1009.03
2018-10-03T06:34:14.164Z,1009.03
2018-10-03T06:35:14.305Z,1009.08
2018-10-03T06:36:14.133Z,1009.04
2018-10-03T06:37:14.084Z,1009.05
2018-10-03T06:38:14.076Z,1009.08
2018-10-03T06:39:14.052Z,1009.13
2018-10-03T06:40:14.093Z,1009.16
2018-10-03T06:41:14.015Z,1009.17
2018-10-03T06:42:13.958Z,1009.19
2018-10-03T06:43:13.924Z,1009.19
2018-10-03T06:44:13.896Z,1009.20
2018-10-03T06:45:13.889Z,1009.22
2018-10-03T06:46:13.854Z,1009.22
2018-10-03T06:47:13.820Z,1009.29
2018-10-03T06:48:13.798Z,1009.27
2018-10-03T06:49:13.853Z,1009.27
2018-10-03T06:50:13.743Z,1009.30
2018-10-03T06:51:13.708Z,1009.31
2018-10-03T06:52:13.691Z,1009.34
2018-10-03T06:53:13.660Z,1009.28
2018-10-03T06:54:13.627Z,1009.25
2018-10-03T06:55:13.610Z,1009.31
2018-10-03T06:56:13.577Z,1009.33
2018-10-03T06:57:13.553Z,1009.32
2018-10-03T06:58:13.523Z,1009.35
2018-10-03T06:59:13.509Z,1009.40
2018-10-03T07:00:13.492Z,1009.41
2018-10-03T07:01:13.448Z,1009.45
2018-10-03T07:02:13.415Z,1009.49
2018-10-03T07:03:13.392Z,1009.49
2018-10-03T07:04:13.366Z,1009.54
2018-10-03T07:05:13.343Z,1009.59
2018-10-03T07:06:13.316Z,1009.60
2018-10-03T07:07:13.288Z,1009.67
2018-10-03T07:08:13.269Z,1009.75
2018-10-03T07:09:13.231Z,1009.73
2018-10-03T07:10:13.202Z,1009.78
2018-10-03T07:11:13.182Z,1009.83
2018-10-03T07:12:13.152Z,1009.84
2018-10-03T07:13:13.210Z,1009.84
2018-10-03T07:14:13.105Z,1009.87
2018-10-03T07:15:13.071Z,1009.85
2018-10-03T07:16:13.049Z,1009.91
2018-10-03T07:17:13.018Z,1009.93
2018-10-03T07:18:12.995Z,1009.97
2018-10-03T07:19:12.974Z,1009.95
2018-10-03T07:20:13.075Z,1009.93
2018-10-03T07:21:12.941Z,1009.96
2018-10-03T07:22:12.907Z,1010.01
2018-10-03T07:23:12.854Z,1010.02
2018-10-03T07:24:12.862Z,1010.10
2018-10-03T07:25:12.851Z,1010.12
2018-10-03T07:26:12.829Z,1010.11
2018-10-03T07:27:12.790Z,1010.12
2018-10-03T07:28:12.765Z,1010.13
2018-10-03T07:29:12.728Z,1010.13
2018-10-03T07:30:12.717Z,1010.13
2018-10-03T07:31:12.648Z,1010.18
2018-10-03T07:32:12.655Z,1010.20
2018-10-03T07:33:12.636Z,1010.23
2018-10-03T07:34:12.626Z,1010.31
2018-10-03T07:35:12.593Z,1010.21
2018-10-03T07:36:12.536Z,1010.23
2018-10-03T07:37:12.519Z,1010.28
2018-10-03T07:38:12.498Z,1010.30
2018-10-03T07:39:12.458Z,1010.26
2018-10-03T07:40:12.467Z,1010.30
2018-10-03T07:41:12.417Z,1010.31
2018-10-03T07:42:12.398Z,1010.33
2018-10-03T07:43:12.367Z,1010.35
2018-10-03T07:44:12.424Z,1010.33
2018-10-03T07:45:12.314Z,1010.37
2018-10-03T07:46:12.250Z,1010.43
2018-10-03T07:47:12.260Z,1010.39
2018-10-03T07:48:12.286Z,1010.42
2018-10-03T07:49:12.170Z,1010.45
2018-10-03T07:50:12.182Z,1010.47
2018-10-03T07:51:12.116Z,1010.45
2018-10-03T07:52:12.093Z,1010.45
2018-10-03T07:53:12.069Z,1010.44
2018-10-03T07:54:12.039Z,1010.51
2018-10-03T07:55:12.006Z,1010.58
2018-10-03T07:56:11.993Z,1010.50
2018-10-03T07:57:11.966Z,1010.50
2018-10-03T07:58:11.949Z,1010.54
2018-10-03T07:59:11.913Z,1010.54
2018-10-03T08:00:11.912Z,1010.61
2018-10-03T08:01:11.847Z,1010.59
2018-10-03T08:02:11.821Z,1010.60
2018-10-03T08:03:11.808Z,1010.59
2018-10-03T08:04:11.774Z,1010.71
2018-10-03T08:05:11.750Z,1010.65
2018-10-03T08:06:11.719Z,1010.68
2018-10-03T08:07:11.691Z,1010.72
2018-10-03T08:08:11.675Z,1010.74
2018-10-03T08:09:11.645Z,1010.72
2018-10-03T08:10:11.642Z,1010.75
2018-10-03T08:11:11.637Z,1010.81
2018-10-03T08:12:11.580Z,1010.82
2018-10-03T08:13:11.567Z,1010.83
2018-10-03T08:14:11.559Z,1010.83
2018-10-03T08:15:11.518Z,1010.77
2018-10-03T08:16:11.487Z,1010.88
2018-10-03T08:17:11.518Z,1010.83
2018-10-03T08:18:11.443Z,1010.77
2018-10-03T08:19:11.385Z,1010.82
2018-10-03T08:20:11.413Z,1010.84
2018-10-03T08:21:11.364Z,1010.84
2018-10-03T08:22:11.336Z,1010.84
2018-10-03T08:23:11.316Z,1010.86
2018-10-03T08:24:11.255Z,1010.83
2018-10-03T08:25:11.258Z,1010.83
2018-10-03T08:26:11.225Z,1010.85
2018-10-03T08:27:11.167Z,1010.86
2018-10-03T08:28:11.136Z,1010.87
2018-10-03T08:29:11.107Z,1010.89
2018-10-03T08:30:11.174Z,1010.87
2018-10-03T08:31:11.060Z,1010.89
2018-10-03T08:32:11.037Z,1010.90
2018-10-03T08:33:11.024Z,1010.86
2018-10-03T08:34:10.994Z,1010.92
2018-10-03T08:35:10.953Z,1011.01
2018-10-03T08:36:10.919Z,1010.92
2018-10-03T08:37:10.903Z,1011.01
2018-10-03T08:38:10.869Z,1010.97
2018-10-03T08:39:10.851Z,1011.01
2018-10-03T08:40:10.821Z,1011.05
2018-10-03T08:41:10.798Z,1011.04
2018-10-03T08:42:10.768Z,1011.13
2018-10-03T08:43:10.739Z,1011.05
2018-10-03T08:44:10.717Z,1011.14
2018-10-03T08:45:10.685Z,1011.05
2018-10-03T08:46:10.663Z,1011.10
2018-10-03T08:47:10.648Z,1011.18
2018-10-03T08:48:10.606Z,1011.17
2018-10-03T08:49:10.581Z,1011.26
2018-10-03T08:50:10.558Z,1011.29
2018-10-03T08:51:10.527Z,1011.27
2018-10-03T08:52:10.503Z,1011.26
2018-10-03T08:53:10.480Z,1011.30
2018-10-03T08:54:10.458Z,1011.26
2018-10-03T08:55:13.579Z,1011.31
2018-10-03T08:56:10.411Z,1011.30
2018-10-03T08:57:10.425Z,1011.31
2018-10-03T08:58:10.391Z,1011.35
2018-10-03T08:59:10.320Z,1011.32
2018-10-03T09:00:10.302Z,1011.31
2018-10-03T09:01:10.274Z,1011.34
2018-10-03T09:02:10.245Z,1011.32
2018-10-03T09:03:10.210Z,1011.36
2018-10-03T09:04:10.194Z,1011.34
2018-10-03T09:05:10.161Z,1011.36
2018-10-03T09:06:10.147Z,1011.37
2018-10-03T09:07:10.108Z,1011.40
2018-10-03T09:08:10.084Z,1011.33
2018-10-03T09:09:10.075Z,1011.43
2018-10-03T09:10:10.047Z,1011.40
2018-10-03T09:11:10.028Z,1011.42
2018-10-03T09:12:09.995Z,1011.48
2018-10-03T09:13:09.968Z,1011.47
2018-10-03T09:14:09.938Z,1011.44
2018-10-03T09:15:09.933Z,1011.43
2018-10-03T09:16:09.885Z,1011.42
2018-10-03T09:17:09.865Z,1011.44
2018-10-03T09:18:09.846Z,1011.47
2018-10-03T09:19:09.808Z,1011.52
2018-10-03T09:20:09.783Z,1011.51
2018-10-03T09:21:09.776Z,1011.49
2018-10-03T09:22:09.715Z,1011.51
2018-10-03T09:23:09.747Z,1011.48
2018-10-03T09:24:09.665Z,1011.56
2018-10-03T09:25:09.630Z,1011.51
2018-10-03T09:26:09.608Z,1011.70
2018-10-03T09:27:09.576Z,1011.69
2018-10-03T09:28:09.560Z,1011.62
2018-10-03T09:29:09.527Z,1011.62
2018-10-03T09:30:09.502Z,1011.69
2018-10-03T09:31:09.475Z,1011.60
2018-10-03T09:32:09.445Z,1011.63
2018-10-03T09:33:09.426Z,1011.63
2018-10-03T09:34:09.398Z,1011.68
2018-10-03T09:35:09.365Z,1011.63
2018-10-03T09:36:09.340Z,1011.64
2018-10-03T09:37:09.316Z,1011.61
2018-10-03T09:38:09.332Z,1011.70
2018-10-03T09:39:09.263Z,1011.61
2018-10-03T09:40:09.245Z,1011.72
2018-10-03T09:41:09.210Z,1011.62
2018-10-03T09:42:09.181Z,1011.73
2018-10-03T09:43:09.162Z,1011.65
2018-10-03T09:44:09.135Z,1011.63
2018-10-03T09:45:09.107Z,1011.73
2018-10-03T09:46:09.088Z,1011.67
2018-10-03T09:47:09.096Z,1011.73
2018-10-03T09:48:09.027Z,1011.73
2018-10-03T09:49:09.013Z,1011.77
2018-10-03T09:50:09.000Z,1011.85
2018-10-03T09:51:08.957Z,1011.84
2018-10-03T09:52:08.961Z,1011.84
2018-10-03T09:53:08.965Z,1011.88
2018-10-03T09:54:08.887Z,1011.84
2018-10-03T09:55:08.879Z,1011.92
2018-10-03T09:56:08.822Z,1011.91
2018-10-03T09:57:08.810Z,1011.87
2018-10-03T09:58:08.782Z,1011.86
2018-10-03T09:59:08.738Z,1011.91
2018-10-03T10:00:08.742Z,1011.85
2018-10-03T10:01:08.703Z,1011.91
2018-10-03T10:02:08.694Z,1011.92
2018-10-03T10:03:08.654Z,1011.98
2018-10-03T10:04:08.651Z,1011.98
2018-10-03T10:05:08.619Z,1011.92
2018-10-03T10:06:08.548Z,1012.00
2018-10-03T10:07:08.544Z,1012.03
2018-10-03T10:08:08.510Z,1011.95
2018-10-03T10:09:08.475Z,1012.01
2018-10-03T10:10:08.483Z,1012.00
2018-10-03T10:11:08.467Z,1012.01
2018-10-03T10:12:08.395Z,1011.99
2018-10-03T10:13:08.379Z,1012.01
2018-10-03T10:14:08.344Z,1011.98
2018-10-03T10:15:08.324Z,1011.95
2018-10-03T10:16:08.289Z,1012.04
2018-10-03T10:17:08.269Z,1012.02
2018-10-03T10:18:08.242Z,1012.04
2018-10-03T10:19:08.210Z,1012.05
2018-10-03T10:20:08.190Z,1012.15
2018-10-03T10:21:08.156Z,1012.08
2018-10-03T10:22:08.136Z,1012.07
2018-10-03T10:23:08.132Z,1011.99
2018-10-03T10:24:08.099Z,1011.97
2018-10-03T10:25:08.052Z,1012.02
2018-10-03T10:26:08.036Z,1011.97
2018-10-03T10:27:08.007Z,1012.00
2018-10-03T10:28:07.973Z,1012.01
2018-10-03T10:29:07.961Z,1012.09
2018-10-03T10:30:07.931Z,1012.12
2018-10-03T10:31:07.903Z,1012.07
2018-10-03T10:32:07.930Z,1012.07
2018-10-03T10:33:07.943Z,1012.10
2018-10-03T10:34:07.817Z,1012.02
2018-10-03T10:35:07.836Z,1012.06
2018-10-03T10:36:07.772Z,1012.02
2018-10-03T10:37:07.742Z,1012.03
2018-10-03T10:38:07.737Z,1012.05
2018-10-03T10:39:07.686Z,1012.08
2018-10-03T10:40:07.768Z,1012.09
2018-10-03T10:41:07.711Z,1012.09
2018-10-03T10:42:07.607Z,1012.11
2018-10-03T10:43:07.593Z,1012.18
2018-10-03T10:44:07.566Z,1012.14
2018-10-03T10:45:07.538Z,1012.14
2018-10-03T10:46:07.517Z,1012.12
2018-10-03T10:47:07.481Z,1012.14
2018-10-03T10:48:07.455Z,1012.16
2018-10-03T10:49:07.435Z,1012.21
2018-10-03T10:50:07.459Z,1012.22
2018-10-03T10:51:07.379Z,1012.16
2018-10-03T10:52:07.356Z,1012.12
2018-10-03T10:53:07.350Z,1012.18
2018-10-03T10:54:07.299Z,1012.21
2018-10-03T10:55:07.276Z,1012.19
2018-10-03T10:56:07.283Z,1012.31
2018-10-03T10:57:07.227Z,1012.24
2018-10-03T10:58:07.199Z,1012.22
2018-10-03T10:59:07.167Z,1012.40
2018-10-03T11:00:07.239Z,1012.31
2018-10-03T11:01:07.118Z,1012.31
2018-10-03T11:02:07.092Z,1012.28
2018-10-03T11:03:07.069Z,1012.35
2018-10-03T11:04:07.035Z,1012.39
2018-10-03T11:05:07.019Z,1012.34
2018-10-03T11:06:07.025Z,1012.33
2018-10-03T11:07:06.969Z,1012.29
2018-10-03T11:08:06.947Z,1012.33
2018-10-03T11:09:06.905Z,1012.27
2018-10-03T11:10:06.884Z,1012.28
2018-10-03T11:11:06.859Z,1012.30
2018-10-03T11:12:06.831Z,1012.29
2018-10-03T11:13:06.804Z,1012.43
2018-10-03T11:14:06.778Z,1012.29
2018-10-03T11:15:06.751Z,1012.34
2018-10-03T11:16:06.725Z,1012.35
2018-10-03T11:17:06.758Z,1012.48
2018-10-03T11:18:06.676Z,1012.40
2018-10-03T11:19:06.650Z,1012.33
2018-10-03T11:20:06.624Z,1012.50
2018-10-03T11:21:06.597Z,1012.40
2018-10-03T11:22:07.609Z,1012.37
2018-10-03T11:23:06.555Z,1012.36
2018-10-03T11:24:07.361Z,1012.33
2018-10-03T11:25:07.133Z,1012.29
2018-10-03T11:26:06.463Z,1012.41
2018-10-03T11:27:06.451Z,1012.40
2018-10-03T11:28:06.412Z,1012.45
2018-10-03T11:29:07.097Z,1012.51
2018-10-03T11:30:06.366Z,1012.49
2018-10-03T11:31:06.332Z,1012.51
2018-10-03T11:32:06.367Z,1012.47
2018-10-03T11:33:06.641Z,1012.48
2018-10-03T11:34:07.096Z,1012.45
2018-10-03T11:35:06.498Z,1012.48
2018-10-03T11:36:07.102Z,1012.53
2018-10-03T11:37:06.337Z,1012.49
2018-10-03T11:38:06.308Z,1012.58
2018-10-03T11:39:06.152Z,1012.53
2018-10-03T11:40:06.104Z,1012.45
2018-10-03T11:41:06.078Z,1012.44
2018-10-03T11:42:06.051Z,1012.46
2018-10-03T11:43:06.032Z,1012.39
2018-10-03T11:44:05.996Z,1012.47
2018-10-03T11:45:05.973Z,1012.43
2018-10-03T11:46:05.947Z,1012.38
2018-10-03T11:47:05.915Z,1012.39
2018-10-03T11:48:05.895Z,1012.40
2018-10-03T11:49:05.858Z,1012.41
2018-10-03T11:50:05.862Z,1012.40
2018-10-03T11:51:05.814Z,1012.49
2018-10-03T11:52:05.845Z,1012.41
2018-10-03T11:53:05.764Z,1012.42
2018-10-03T11:54:05.741Z,1012.41
2018-10-03T11:55:05.709Z,1012.40
2018-10-03T11:56:05.684Z,1012.41
2018-10-03T11:57:05.728Z,1012.50
2018-10-03T11:58:05.628Z,1012.36
2018-10-03T11:59:05.608Z,1012.47
2018-10-03T12:00:05.575Z,1012.45
2018-10-03T12:01:05.550Z,1012.37
2018-10-03T12:02:05.522Z,1012.37
2018-10-03T12:03:05.675Z,1012.39
2018-10-03T12:04:05.471Z,1012.35
2018-10-03T12:05:05.443Z,1012.33